createdAt,value
2018-09-14T00:00:01.540Z,34.58
2018-09-14T00:00:39.665Z,35.05
2018-09-14T00:01:17.705Z,33.30
2018-09-14T00:01:55.759Z,35.28
2018-09-14T00:02:34.514Z,33.80
2018-09-14T00:03:12.890Z,40.38
2018-09-14T00:03:50.933Z,33.70
2018-09-14T00:04:29.683Z,36.77
2018-09-14T00:05:07.731Z,33.40
2018-09-14T00:05:45.918Z,33.83
2018-09-14T00:06:23.862Z,36.83
2018-09-14T00:07:02.200Z,34.75
2018-09-14T00:07:40.491Z,35.88
2018-09-14T00:08:18.559Z,36.63
2018-09-14T00:08:56.640Z,38.30
2018-09-14T00:09:34.855Z,34.13
2018-09-14T00:10:13.060Z,32.78
2018-09-14T00:10:51.071Z,32.63
2018-09-14T00:11:29.857Z,36.30
2018-09-14T00:12:08.025Z,30.70
2018-09-14T00:12:46.073Z,34.73
2018-09-14T00:13:24.327Z,33.30
2018-09-14T00:14:02.721Z,33.53
2018-09-14T00:14:40.702Z,34.40
2018-09-14T00:15:18.989Z,34.95
2018-09-14T00:15:58.033Z,31.95
2018-09-14T00:16:36.465Z,33.77
2018-09-14T00:17:15.432Z,33.13
2018-09-14T00:17:53.682Z,33.33
2018-09-14T00:18:33.114Z,33.02
2018-09-14T00:19:11.176Z,35.28
2018-09-14T00:19:51.141Z,35.85
2018-09-14T00:20:31.067Z,34.23
2018-09-14T00:21:09.584Z,35.45
2018-09-14T00:21:47.666Z,32.28
2018-09-14T00:22:26.161Z,35.43
2018-09-14T00:23:04.082Z,33.23
2018-09-14T00:23:41.930Z,31.80
2018-09-14T00:24:20.857Z,32.98
2018-09-14T00:25:00.284Z,36.83
2018-09-14T00:25:38.227Z,32.23
2018-09-14T00:26:16.848Z,32.83
2018-09-14T00:26:54.728Z,31.93
2018-09-14T00:27:32.644Z,32.10
2018-09-14T00:28:10.771Z,35.68
2018-09-14T00:28:49.363Z,36.08
2018-09-14T00:29:27.362Z,32.50
2018-09-14T00:30:05.375Z,34.75
2018-09-14T00:30:43.300Z,34.07
2018-09-14T00:31:21.298Z,35.20
2018-09-14T00:31:59.076Z,41.65
2018-09-14T00:32:37.070Z,32.88
2018-09-14T00:33:16.255Z,34.78
2018-09-14T00:33:54.317Z,33.88
2018-09-14T00:34:32.426Z,32.95
2018-09-14T00:35:10.343Z,36.70
2018-09-14T00:35:48.153Z,37.60
2018-09-14T00:36:26.352Z,35.68
2018-09-14T00:37:05.431Z,34.25
2018-09-14T00:37:44.076Z,34.20
2018-09-14T00:38:21.934Z,35.05
2018-09-14T00:38:59.852Z,33.53
2018-09-14T00:39:37.824Z,34.55
2018-09-14T00:46:23.961Z,33.95
2018-09-14T00:47:01.874Z,35.98
2018-09-14T00:47:39.868Z,35.28
2018-09-14T00:48:17.769Z,33.35
2018-09-14T00:48:55.748Z,34.60
2018-09-14T00:49:33.696Z,35.33
2018-09-14T00:50:12.224Z,34.27
2018-09-14T00:50:50.760Z,36.63
2018-09-14T00:51:28.679Z,36.00
2018-09-14T00:52:06.620Z,32.80
2018-09-14T00:52:44.599Z,34.90
2018-09-14T00:53:22.513Z,41.85
2018-09-14T00:54:01.017Z,35.95
2018-09-14T00:54:39.421Z,35.37
2018-09-14T00:55:18.421Z,37.55
2018-09-14T00:55:57.114Z,33.90
2018-09-14T00:56:35.016Z,36.75
2018-09-14T00:57:12.953Z,36.83
2018-09-14T00:57:50.837Z,33.67
2018-09-14T00:58:28.751Z,38.20
2018-09-14T00:59:06.897Z,35.30
2018-09-14T00:59:45.048Z,35.20
2018-09-14T01:00:22.850Z,33.13
2018-09-14T01:01:00.837Z,32.48
2018-09-14T01:01:38.705Z,33.42
2018-09-14T01:02:17.802Z,37.13
2018-09-14T01:02:55.838Z,32.78
2018-09-14T01:03:35.095Z,38.15
2018-09-14T01:04:13.178Z,35.83
2018-09-14T01:04:51.058Z,40.08
2018-09-14T01:05:28.877Z,38.88
2018-09-14T01:06:06.796Z,36.20
2018-09-14T01:06:44.705Z,36.30
2018-09-14T01:07:23.652Z,35.40
2018-09-14T01:08:02.477Z,37.38
2018-09-14T01:08:40.845Z,36.57
2018-09-14T01:09:22.898Z,64.15
2018-09-14T01:10:00.950Z,38.98
2018-09-14T01:10:38.919Z,37.70
2018-09-14T01:11:16.803Z,41.70
2018-09-14T01:11:54.744Z,40.00
2018-09-14T01:12:33.370Z,40.38
2018-09-14T01:13:11.364Z,40.50
2018-09-14T01:13:49.493Z,38.17
2018-09-14T01:14:27.877Z,43.38
2018-09-14T01:15:05.897Z,42.23
2018-09-14T01:15:46.888Z,42.27
2018-09-14T01:16:26.087Z,40.88
2018-09-14T01:17:04.678Z,42.27
2018-09-14T01:17:42.576Z,39.35
2018-09-14T01:18:20.586Z,43.92
2018-09-14T01:18:58.349Z,41.25
2018-09-14T01:19:36.169Z,43.20
2018-09-14T01:20:14.264Z,43.45
2018-09-14T01:20:53.890Z,41.95
2018-09-14T01:21:32.899Z,42.50
2018-09-14T01:22:10.831Z,42.38
2018-09-14T01:22:48.744Z,45.48
2018-09-14T01:23:27.618Z,39.70
2018-09-14T01:24:05.568Z,44.58
2018-09-14T01:24:44.667Z,42.10
2018-09-14T01:25:23.055Z,42.65
2018-09-14T01:26:01.454Z,40.03
2018-09-14T01:26:39.674Z,44.57
2018-09-14T01:27:17.667Z,37.93
2018-09-14T01:27:55.634Z,41.10
2018-09-14T01:28:33.660Z,39.10
2018-09-14T01:29:11.443Z,42.50
2018-09-14T01:29:51.957Z,37.98
2018-09-14T01:30:29.875Z,38.75
2018-09-14T01:31:07.800Z,48.92
2018-09-14T01:31:45.659Z,41.85
2018-09-14T01:32:23.712Z,46.10
2018-09-14T01:33:01.511Z,41.13
2018-09-14T01:33:39.566Z,42.88
2018-09-14T01:34:17.745Z,43.85
2018-09-14T01:34:55.633Z,38.58
2018-09-14T01:35:37.698Z,40.35
2018-09-14T01:36:16.586Z,40.88
2018-09-14T01:36:54.531Z,39.60
2018-09-14T01:37:32.295Z,37.65
2018-09-14T01:38:14.524Z,41.90
2018-09-14T01:38:53.501Z,42.45
2018-09-14T01:39:31.408Z,40.85
2018-09-14T01:40:09.221Z,40.12
2018-09-14T01:40:47.111Z,39.70
2018-09-14T01:41:25.073Z,41.10
2018-09-14T01:42:02.965Z,44.98
2018-09-14T01:42:41.424Z,43.73
2018-09-14T01:43:19.458Z,41.68
2018-09-14T01:43:57.258Z,38.98
2018-09-14T01:44:35.251Z,41.20
2018-09-14T01:45:13.219Z,39.58
2018-09-14T01:45:51.335Z,39.27
2018-09-14T01:46:29.153Z,40.35
2018-09-14T01:47:07.839Z,42.83
2018-09-14T01:47:46.029Z,40.52
2018-09-14T01:48:23.829Z,41.98
2018-09-14T01:49:01.797Z,42.38
2018-09-14T01:49:39.806Z,39.48
2018-09-14T01:50:17.763Z,43.70
2018-09-14T01:50:55.696Z,41.20
2018-09-14T01:51:34.179Z,45.25
2018-09-14T01:52:12.136Z,39.40
2018-09-14T01:52:50.096Z,42.58
2018-09-14T01:53:28.180Z,43.55
2018-09-14T01:54:06.095Z,47.17
2018-09-14T01:54:44.023Z,39.10
2018-09-14T01:55:22.230Z,38.67
2018-09-14T01:56:00.999Z,42.20
2018-09-14T01:56:39.168Z,41.63
2018-09-14T01:57:17.139Z,43.90
2018-09-14T01:57:55.119Z,42.48
2018-09-14T01:58:33.136Z,43.13
2018-09-14T01:59:11.848Z,41.77
2018-09-14T01:59:49.739Z,41.55
2018-09-14T02:00:27.782Z,38.42
2018-09-14T02:01:05.670Z,40.12
2018-09-14T02:01:43.599Z,44.63
2018-09-14T02:02:21.582Z,39.23
2018-09-14T02:02:59.544Z,41.60
2018-09-14T02:03:37.582Z,47.25
2018-09-14T02:04:16.237Z,38.92
2018-09-14T02:04:56.675Z,45.15
2018-09-14T02:05:34.542Z,42.00
2018-09-14T02:06:12.514Z,39.35
2018-09-14T02:06:50.508Z,44.15
2018-09-14T02:07:28.438Z,44.75
2018-09-14T02:08:06.400Z,40.00
2018-09-14T02:08:45.526Z,40.10
2018-09-14T02:09:24.622Z,42.05
2018-09-14T02:10:02.510Z,42.33
2018-09-14T02:10:40.545Z,39.20
2018-09-14T02:11:18.537Z,42.70
2018-09-14T02:11:56.474Z,42.58
2018-09-14T02:12:34.450Z,41.80
2018-09-14T02:13:14.294Z,39.20
2018-09-14T02:13:52.433Z,43.58
2018-09-14T02:14:30.340Z,46.45
2018-09-14T02:15:08.333Z,38.00
2018-09-14T02:15:46.270Z,44.38
2018-09-14T02:16:24.179Z,41.13
2018-09-14T02:17:02.188Z,39.58
2018-09-14T02:17:40.511Z,47.93
2018-09-14T02:18:18.682Z,40.07
2018-09-14T02:18:56.581Z,43.65
2018-09-14T02:19:34.483Z,43.68
2018-09-14T02:20:12.585Z,43.55
2018-09-14T02:20:50.670Z,41.25
2018-09-14T02:21:29.241Z,42.85
2018-09-14T02:22:07.465Z,38.53
2018-09-14T02:22:45.391Z,42.80
2018-09-14T02:23:23.638Z,41.20
2018-09-14T02:24:01.617Z,40.70
2018-09-14T02:24:39.870Z,39.15
2018-09-14T02:25:18.028Z,40.05
2018-09-14T02:25:57.260Z,42.88
2018-09-14T02:26:35.805Z,47.70
2018-09-14T02:27:14.195Z,39.25
2018-09-14T02:27:52.370Z,40.95
2018-09-14T02:28:30.604Z,39.63
2018-09-14T02:29:08.755Z,41.07
2018-09-14T02:29:47.820Z,39.92
2018-09-14T02:30:26.185Z,44.15
2018-09-14T02:31:04.784Z,43.33
2018-09-14T02:31:42.997Z,41.70
2018-09-14T02:32:21.261Z,42.33
2018-09-14T02:32:59.469Z,39.83
2018-09-14T02:33:37.621Z,40.55
2018-09-14T02:34:16.047Z,39.60
2018-09-14T02:34:54.504Z,40.73
2018-09-14T02:35:33.943Z,45.48
2018-09-14T02:36:12.140Z,40.20
2018-09-14T02:36:50.368Z,40.85
2018-09-14T02:37:28.497Z,40.28
2018-09-14T02:38:06.652Z,38.70
2018-09-14T02:38:45.006Z,39.80
2018-09-14T02:39:23.787Z,40.67
2018-09-14T02:40:02.134Z,38.70
2018-09-14T02:40:40.096Z,36.70
2018-09-14T02:41:17.999Z,39.15
2018-09-14T02:41:56.876Z,41.05
2018-09-14T02:42:36.911Z,40.65
2018-09-14T02:43:16.291Z,40.38
2018-09-14T02:43:54.774Z,37.53
2018-09-14T02:44:33.078Z,38.13
2018-09-14T02:45:11.004Z,38.00
2018-09-14T02:45:48.981Z,39.50
2018-09-14T02:46:28.065Z,41.00
2018-09-14T02:47:06.134Z,43.78
2018-09-14T02:47:45.655Z,39.17
2018-09-14T02:48:23.981Z,39.67
2018-09-14T02:49:02.026Z,39.20
2018-09-14T02:49:43.335Z,40.15
2018-09-14T02:50:21.494Z,42.60
2018-09-14T02:50:59.414Z,37.30
2018-09-14T02:51:37.547Z,40.47
2018-09-14T02:52:17.012Z,40.95
2018-09-14T02:52:55.287Z,40.45
2018-09-14T02:53:33.452Z,36.98
2018-09-14T02:54:12.378Z,39.30
2018-09-14T02:54:50.444Z,49.27
2018-09-14T02:55:29.735Z,37.30
2018-09-14T02:56:07.641Z,40.95
2018-09-14T02:56:46.228Z,40.83
2018-09-14T02:57:25.362Z,38.50
2018-09-14T02:58:03.347Z,38.85
2018-09-14T02:58:42.313Z,38.90
2018-09-14T02:59:20.366Z,39.18
2018-09-14T02:59:58.287Z,35.93
2018-09-14T03:00:36.837Z,39.33
2018-09-14T03:01:16.058Z,42.50
2018-09-14T03:01:53.976Z,37.05
2018-09-14T03:02:32.646Z,35.68
2018-09-14T03:03:10.586Z,38.60
2018-09-14T03:03:48.710Z,37.20
2018-09-14T03:04:26.668Z,38.27
2018-09-14T03:05:04.620Z,38.53
2018-09-14T03:05:42.748Z,37.90
2018-09-14T03:06:20.692Z,38.05
2018-09-14T03:06:58.712Z,37.65
2018-09-14T03:07:36.676Z,38.00
2018-09-14T03:08:14.423Z,38.97
2018-09-14T03:08:52.379Z,37.13
2018-09-14T03:09:30.667Z,37.28
2018-09-14T03:10:09.276Z,37.42
2018-09-14T03:10:47.130Z,38.77
2018-09-14T03:11:25.117Z,35.60
2018-09-14T03:12:03.033Z,37.85
2018-09-14T03:12:40.895Z,37.20
2018-09-14T03:13:18.674Z,36.60
2018-09-14T03:13:57.977Z,39.47
2018-09-14T03:14:36.376Z,39.43
2018-09-14T03:15:14.166Z,35.58
2018-09-14T03:15:52.732Z,38.40
2018-09-14T03:16:30.655Z,36.00
2018-09-14T03:17:08.678Z,35.92
2018-09-14T03:17:46.602Z,36.20
2018-09-14T03:18:26.192Z,36.03
2018-09-14T03:19:04.244Z,34.93
2018-09-14T03:19:42.095Z,35.70
2018-09-14T03:20:19.974Z,35.92
2018-09-14T03:20:58.763Z,33.20
2018-09-14T03:21:36.613Z,35.98
2018-09-14T03:22:14.679Z,34.67
2018-09-14T03:22:53.809Z,35.78
2018-09-14T03:23:31.804Z,35.87
2018-09-14T03:24:10.631Z,36.40
2018-09-14T03:24:49.416Z,37.78
2018-09-14T03:25:27.451Z,35.20
2018-09-14T03:26:05.413Z,35.00
2018-09-14T03:26:44.058Z,36.87
2018-09-14T03:27:23.349Z,37.93
2018-09-14T03:28:01.430Z,35.10
2018-09-14T03:28:39.359Z,40.30
2018-09-14T03:29:17.337Z,35.97
2018-09-14T03:29:55.280Z,33.83
2018-09-14T03:30:33.237Z,35.50
2018-09-14T03:31:11.789Z,31.85
2018-09-14T03:31:50.130Z,31.93
2018-09-14T03:32:28.023Z,33.80
2018-09-14T03:33:05.890Z,34.88
2018-09-14T03:33:43.743Z,36.77
2018-09-14T03:34:21.558Z,36.40
2018-09-14T03:34:59.539Z,33.83
2018-09-14T03:35:38.797Z,35.60
2018-09-14T03:36:16.818Z,34.10
2018-09-14T03:36:55.038Z,33.08
2018-09-14T03:37:33.931Z,34.08
2018-09-14T03:38:11.873Z,35.40
2018-09-14T03:38:49.677Z,35.68
2018-09-14T03:39:28.504Z,31.87
2018-09-14T03:40:06.799Z,34.20
2018-09-14T03:40:44.778Z,36.07
2018-09-14T03:41:22.667Z,38.80
2018-09-14T03:42:00.660Z,38.03
2018-09-14T03:42:38.673Z,32.70
2018-09-14T03:43:16.699Z,33.83
2018-09-14T03:43:55.674Z,32.63
2018-09-14T03:44:34.951Z,33.30
2018-09-14T03:45:12.910Z,34.57
2018-09-14T03:45:50.862Z,33.70
2018-09-14T03:46:28.867Z,35.13
2018-09-14T03:47:06.957Z,35.10
2018-09-14T03:47:45.043Z,32.80
2018-09-14T03:48:23.378Z,31.85
2018-09-14T03:49:02.491Z,34.87
2018-09-14T03:49:41.512Z,33.05
2018-09-14T03:50:19.812Z,34.50
2018-09-14T03:50:58.472Z,35.48
2018-09-14T03:51:36.521Z,33.60
2018-09-14T03:52:14.298Z,31.30
2018-09-14T03:52:52.357Z,34.90
2018-09-14T03:53:30.724Z,32.80
2018-09-14T03:54:08.639Z,31.23
2018-09-14T03:54:46.623Z,34.63
2018-09-14T03:55:24.553Z,33.60
2018-09-14T03:56:02.446Z,32.10
2018-09-14T03:56:40.366Z,33.70
2018-09-14T03:57:20.383Z,31.67
2018-09-14T03:57:59.026Z,32.80
2018-09-14T03:58:36.971Z,33.63
2018-09-14T03:59:14.927Z,31.30
2018-09-14T03:59:52.900Z,33.13
2018-09-14T04:00:30.845Z,32.10
2018-09-14T04:01:08.768Z,32.03
2018-09-14T04:01:46.948Z,31.33
2018-09-14T04:02:25.131Z,32.50
2018-09-14T04:03:03.019Z,31.00
2018-09-14T04:03:40.974Z,30.33
2018-09-14T04:04:18.920Z,31.95
2018-09-14T04:04:56.783Z,32.17
2018-09-14T04:05:35.547Z,35.30
2018-09-14T04:06:13.898Z,33.00
2018-09-14T04:06:52.009Z,33.08
2018-09-14T04:07:29.867Z,33.23
2018-09-14T04:08:07.917Z,31.93
2018-09-14T04:08:45.767Z,34.77
2018-09-14T04:09:23.757Z,32.17
2018-09-14T04:10:01.724Z,33.80
2018-09-14T04:10:41.286Z,31.40
2018-09-14T04:11:19.214Z,31.20
2018-09-14T04:11:57.094Z,31.07
2018-09-14T04:12:34.924Z,30.23
2018-09-14T04:13:12.796Z,35.23
2018-09-14T04:13:50.733Z,31.35
2018-09-14T04:14:28.581Z,33.87
2018-09-14T04:15:07.079Z,32.85
2018-09-14T04:15:44.934Z,32.55
2018-09-14T04:16:23.004Z,31.50
2018-09-14T04:17:01.049Z,31.57
2018-09-14T04:17:39.077Z,30.93
2018-09-14T04:18:17.064Z,30.15
2018-09-14T04:18:59.500Z,29.80
2018-09-14T04:19:38.774Z,36.53
2018-09-14T04:20:16.795Z,31.95
2018-09-14T04:20:54.650Z,30.88
2018-09-14T04:21:33.594Z,30.70
2018-09-14T04:22:11.619Z,29.63
2018-09-14T04:22:49.572Z,31.27
2018-09-14T04:23:28.155Z,29.63
2018-09-14T04:24:06.463Z,29.90
2018-09-14T04:24:44.451Z,29.37
2018-09-14T04:25:22.290Z,30.67
2018-09-14T04:26:00.206Z,31.27
2018-09-14T04:26:38.047Z,32.70
2018-09-14T04:27:15.891Z,30.30
2018-09-14T04:27:53.977Z,29.93
2018-09-14T04:28:31.963Z,29.60
2018-09-14T04:29:09.881Z,30.93
2018-09-14T04:29:48.724Z,31.10
2018-09-14T04:30:26.659Z,32.20
2018-09-14T04:31:04.544Z,30.13
2018-09-14T04:31:43.495Z,29.63
2018-09-14T04:32:22.005Z,30.40
2018-09-14T04:33:00.024Z,33.00
2018-09-14T04:33:38.017Z,30.90
2018-09-14T04:34:16.608Z,31.55
2018-09-14T04:34:54.635Z,31.60
2018-09-14T04:35:32.533Z,32.40
2018-09-14T04:36:11.879Z,29.10
2018-09-14T04:36:50.945Z,31.70
2018-09-14T04:37:28.944Z,30.17
2018-09-14T04:38:07.011Z,28.77
2018-09-14T04:38:45.249Z,30.50
2018-09-14T04:39:23.196Z,30.50
2018-09-14T04:40:01.103Z,27.80
2018-09-14T04:40:39.687Z,31.97
2018-09-14T04:41:18.269Z,34.10
2018-09-14T04:41:56.226Z,28.93
2018-09-14T04:42:34.242Z,28.80
2018-09-14T04:43:12.144Z,29.20
2018-09-14T04:43:50.118Z,28.83
2018-09-14T04:44:27.997Z,29.47
2018-09-14T04:45:05.990Z,28.60
2018-09-14T04:45:44.274Z,27.90
2018-09-14T04:46:22.145Z,29.43
2018-09-14T04:47:00.122Z,28.90
2018-09-14T04:47:38.035Z,30.63
2018-09-14T04:48:16.268Z,30.30
2018-09-14T04:48:54.346Z,30.63
2018-09-14T04:49:32.917Z,29.07
2018-09-14T04:50:11.236Z,28.10
2018-09-14T04:50:49.256Z,30.20
2018-09-14T04:51:27.294Z,30.40
2018-09-14T04:52:05.134Z,31.70
2018-09-14T04:52:43.009Z,30.57
2018-09-14T04:53:21.013Z,28.67
2018-09-14T04:54:00.440Z,27.50
2018-09-14T04:54:38.447Z,30.07
2018-09-14T04:55:16.447Z,29.33
2018-09-14T04:55:55.388Z,27.97
2018-09-14T04:56:33.270Z,28.30
2018-09-14T04:57:11.884Z,28.07
2018-09-14T04:57:49.902Z,29.37
2018-09-14T04:58:28.804Z,29.57
2018-09-14T04:59:06.783Z,30.20
2018-09-14T04:59:44.825Z,27.32
2018-09-14T05:00:22.880Z,27.73
2018-09-14T05:01:00.819Z,28.38
2018-09-14T05:01:38.622Z,29.80
2018-09-14T05:02:17.555Z,31.65
2018-09-14T05:02:57.214Z,31.65
2018-09-14T05:03:35.175Z,27.70
2018-09-14T05:04:13.148Z,27.90
2018-09-14T05:04:51.134Z,30.00
2018-09-14T05:05:29.023Z,29.40
2018-09-14T05:06:06.966Z,29.00
2018-09-14T05:06:46.295Z,29.00
2018-09-14T05:07:26.200Z,26.67
2018-09-14T05:08:04.129Z,29.60
2018-09-14T05:08:42.002Z,31.43
2018-09-14T05:09:21.607Z,43.37
2018-09-14T05:09:59.431Z,32.40
2018-09-14T05:10:37.307Z,28.30
2018-09-14T05:11:16.447Z,29.20
2018-09-14T05:11:55.337Z,26.60
2018-09-14T05:12:33.262Z,28.13
2018-09-14T05:13:11.282Z,27.20
2018-09-14T05:13:49.148Z,27.30
2018-09-14T05:14:27.172Z,31.95
2018-09-14T05:15:04.953Z,28.60
2018-09-14T05:15:42.914Z,27.95
2018-09-14T05:16:21.707Z,30.67
2018-09-14T05:16:59.762Z,29.70
2018-09-14T05:17:37.783Z,29.10
2018-09-14T05:18:16.752Z,30.60
2018-09-14T05:18:54.713Z,26.97
2018-09-14T05:19:32.603Z,31.77
2018-09-14T05:20:11.072Z,28.77
2018-09-14T05:20:49.181Z,27.37
2018-09-14T05:21:27.283Z,27.98
2018-09-14T05:22:05.352Z,26.70
2018-09-14T05:22:43.326Z,28.60
2018-09-14T05:23:21.640Z,30.80
2018-09-14T05:23:59.989Z,29.32
2018-09-14T05:24:38.332Z,28.50
2018-09-14T05:25:16.326Z,30.70
2018-09-14T05:25:54.193Z,27.10
2018-09-14T05:26:32.084Z,29.67
2018-09-14T05:27:10.006Z,26.40
2018-09-14T05:27:47.982Z,31.68
2018-09-14T05:28:26.316Z,26.20
2018-09-14T05:29:04.619Z,27.87
2018-09-14T05:29:43.521Z,28.83
2018-09-14T05:30:21.295Z,25.53
2018-09-14T05:30:59.278Z,26.20
2018-09-14T05:31:37.311Z,28.25
2018-09-14T05:32:15.918Z,25.67
2018-09-14T05:32:54.462Z,29.52
2018-09-14T05:33:32.850Z,26.95
2018-09-14T05:34:10.961Z,25.13
2018-09-14T05:34:48.842Z,26.43
2018-09-14T05:35:26.722Z,27.65
2018-09-14T05:36:04.762Z,25.90
2018-09-14T05:36:42.770Z,27.33
2018-09-14T05:37:21.520Z,25.83
2018-09-14T05:37:59.522Z,27.17
2018-09-14T05:38:37.439Z,28.43
2018-09-14T05:39:15.361Z,31.70
2018-09-14T05:39:53.374Z,28.17
2018-09-14T05:40:31.368Z,26.97
2018-09-14T05:41:09.305Z,29.60
2018-09-14T05:41:48.013Z,28.53
2018-09-14T05:42:25.947Z,26.97
2018-09-14T05:43:03.936Z,30.60
2018-09-14T05:43:41.965Z,30.30
2018-09-14T05:44:20.908Z,27.10
2018-09-14T05:44:58.850Z,28.67
2018-09-14T05:45:36.781Z,26.30
2018-09-14T05:46:15.477Z,29.50
2018-09-14T05:46:53.422Z,27.03
2018-09-14T05:47:31.398Z,27.93
2018-09-14T05:48:09.292Z,28.00
2018-09-14T05:48:47.252Z,27.50
2018-09-14T05:49:25.247Z,30.30
2018-09-14T05:50:03.425Z,30.23
2018-09-14T05:50:41.936Z,26.93
2018-09-14T05:51:19.850Z,27.07
2018-09-14T05:51:57.831Z,27.63
2018-09-14T05:52:36.620Z,26.80
2018-09-14T05:53:16.035Z,28.70
2018-09-14T05:53:54.173Z,27.73
2018-09-14T05:54:34.901Z,29.18
2018-09-14T05:55:13.562Z,26.85
2018-09-14T05:55:51.500Z,29.12
2018-09-14T05:56:29.322Z,30.33
2018-09-14T05:57:07.233Z,27.83
2018-09-14T05:57:45.320Z,32.03
2018-09-14T05:58:23.175Z,28.13
2018-09-14T05:59:01.373Z,28.60
2018-09-14T05:59:39.405Z,31.37
2018-09-14T06:00:17.316Z,28.43
2018-09-14T06:00:55.112Z,28.23
2018-09-14T06:01:33.088Z,28.17
2018-09-14T06:02:10.991Z,30.73
2018-09-14T06:02:49.111Z,29.20
2018-09-14T06:03:27.310Z,30.90
2018-09-14T06:04:05.771Z,30.60
2018-09-14T06:04:44.328Z,27.50
2018-09-14T06:05:22.308Z,29.73
2018-09-14T06:06:00.067Z,27.80
2018-09-14T06:06:38.077Z,27.10
2018-09-14T06:07:16.183Z,30.90
2018-09-14T06:07:54.458Z,30.00
2018-09-14T06:08:32.320Z,26.10
2018-09-14T06:09:15.472Z,28.17
2018-09-14T06:09:53.396Z,28.10
2018-09-14T06:10:31.442Z,27.93
2018-09-14T06:11:09.461Z,25.50
2018-09-14T06:11:48.003Z,25.23
2018-09-14T06:12:26.278Z,30.20
2018-09-14T06:13:04.231Z,29.57
2018-09-14T06:13:42.197Z,28.20
2018-09-14T06:14:20.083Z,27.60
2018-09-14T06:14:58.031Z,29.80
2018-09-14T06:15:35.997Z,26.47
2018-09-14T06:16:14.223Z,28.57
2018-09-14T06:16:52.331Z,28.60
2018-09-14T06:17:30.243Z,30.93
2018-09-14T06:18:08.151Z,31.50
2018-09-14T06:18:46.008Z,28.47
2018-09-14T06:19:23.958Z,30.43
2018-09-14T06:20:02.891Z,27.57
2018-09-14T06:20:41.162Z,28.47
2018-09-14T06:21:19.282Z,28.27
2018-09-14T06:21:57.171Z,31.70
2018-09-14T06:22:35.208Z,28.63
2018-09-14T06:23:13.079Z,25.60
2018-09-14T06:23:51.702Z,26.27
2018-09-14T06:24:29.612Z,29.43
2018-09-14T06:25:09.693Z,26.97
2018-09-14T06:25:47.827Z,26.53
2018-09-14T06:26:25.750Z,26.40
2018-09-14T06:27:03.666Z,29.33
2018-09-14T06:27:41.678Z,27.90
2018-09-14T06:28:19.567Z,26.63
2018-09-14T06:28:57.425Z,28.77
2018-09-14T06:29:35.962Z,27.53
2018-09-14T06:30:13.913Z,26.60
2018-09-14T06:30:51.899Z,25.87
2018-09-14T06:31:29.888Z,32.03
2018-09-14T06:32:07.852Z,27.57
2018-09-14T06:32:45.699Z,26.43
2018-09-14T06:33:27.175Z,26.50
2018-09-14T06:34:05.357Z,26.93
2018-09-14T06:34:43.308Z,27.67
2018-09-14T06:35:21.292Z,26.23
2018-09-14T06:35:59.177Z,26.63
2018-09-14T06:36:38.495Z,28.17
2018-09-14T06:37:16.518Z,25.27
2018-09-14T06:37:55.559Z,28.30
2018-09-14T06:38:33.863Z,27.13
2018-09-14T06:39:13.868Z,26.60
2018-09-14T06:39:51.832Z,26.50
2018-09-14T06:40:29.771Z,28.40
2018-09-14T06:41:07.777Z,25.97
2018-09-14T06:41:45.726Z,28.02
2018-09-14T06:42:25.493Z,26.07
2018-09-14T06:43:03.745Z,29.37
2018-09-14T06:43:41.619Z,27.10
2018-09-14T06:44:19.455Z,26.17
2018-09-14T06:44:57.349Z,27.23
2018-09-14T06:45:35.284Z,26.37
2018-09-14T06:46:13.391Z,28.00
2018-09-14T06:46:51.712Z,26.17
2018-09-14T06:47:29.745Z,26.10
2018-09-14T06:48:07.608Z,26.60
2018-09-14T06:48:45.489Z,26.77
2018-09-14T06:49:23.365Z,28.77
2018-09-14T06:50:01.305Z,25.53
2018-09-14T06:50:39.274Z,24.67
2018-09-14T06:51:17.503Z,26.67
2018-09-14T06:51:55.525Z,26.70
2018-09-14T06:52:33.537Z,28.00
2018-09-14T06:53:11.508Z,27.03
2018-09-14T06:53:49.458Z,26.80
2018-09-14T06:54:27.454Z,25.20
2018-09-14T06:55:07.056Z,26.63
2018-09-14T06:55:47.425Z,26.33
2018-09-14T06:56:25.383Z,28.43
2018-09-14T06:57:03.158Z,25.30
2018-09-14T06:57:41.093Z,27.50
2018-09-14T06:58:19.369Z,28.10
2018-09-14T06:58:57.461Z,27.10
2018-09-14T06:59:35.797Z,25.50
2018-09-14T07:00:14.250Z,28.47
2018-09-14T07:00:52.307Z,27.03
2018-09-14T07:01:30.323Z,29.47
2018-09-14T07:02:08.288Z,25.60
2018-09-14T07:02:46.268Z,26.23
2018-09-14T07:03:24.268Z,26.07
2018-09-14T07:04:02.918Z,26.63
2018-09-14T07:04:43.520Z,25.47
2018-09-14T07:05:21.431Z,26.00
2018-09-14T07:05:59.449Z,25.67
2018-09-14T07:06:37.337Z,27.07
2018-09-14T07:07:15.366Z,24.73
2018-09-14T07:07:53.338Z,26.00
2018-09-14T07:08:32.153Z,28.37
2018-09-14T07:09:11.854Z,25.67
2018-09-14T07:09:49.780Z,25.80
2018-09-14T07:10:27.606Z,25.60
2018-09-14T07:11:05.545Z,27.10
2018-09-14T07:11:43.513Z,25.73
2018-09-14T07:12:21.503Z,25.30
2018-09-14T07:13:00.103Z,26.97
2018-09-14T07:13:37.921Z,25.97
2018-09-14T07:14:16.341Z,24.80
2018-09-14T07:14:54.287Z,24.27
2018-09-14T07:15:32.234Z,26.03
2018-09-14T07:16:10.065Z,27.93
2018-09-14T07:16:49.775Z,28.05
2018-09-14T07:17:28.905Z,27.63
2018-09-14T07:18:06.792Z,27.95
2018-09-14T07:18:44.683Z,28.90
2018-09-14T07:19:22.601Z,28.67
2018-09-14T07:20:00.474Z,27.60
2018-09-14T07:20:38.474Z,28.60
2018-09-14T07:21:17.079Z,25.80
2018-09-14T07:21:55.276Z,26.10
2018-09-14T07:22:33.356Z,26.07
2018-09-14T07:23:11.435Z,25.27
2018-09-14T07:23:49.308Z,28.47
2018-09-14T07:24:27.935Z,24.67
2018-09-14T07:25:05.858Z,27.57
2018-09-14T07:25:44.062Z,27.77
2018-09-14T07:26:23.491Z,25.83
2018-09-14T07:27:01.447Z,24.87
2018-09-14T07:27:39.374Z,26.40
2018-09-14T07:28:17.235Z,25.67
2018-09-14T07:28:55.224Z,26.37
2018-09-14T07:29:33.156Z,25.27
2018-09-14T07:30:11.548Z,30.50
2018-09-14T07:30:49.481Z,27.30
2018-09-14T07:31:27.335Z,25.70
2018-09-14T07:32:05.458Z,25.27
2018-09-14T07:32:43.417Z,26.37
2018-09-14T07:33:21.358Z,30.07
2018-09-14T07:33:59.311Z,26.07
2018-09-14T07:34:37.652Z,25.47
2018-09-14T07:35:15.525Z,25.33
2018-09-14T07:35:53.382Z,27.37
2018-09-14T07:36:31.239Z,25.30
2018-09-14T07:37:09.148Z,26.27
2018-09-14T07:37:47.069Z,25.90
2018-09-14T07:38:25.022Z,27.00
2018-09-14T07:39:03.560Z,26.10
2018-09-14T07:39:41.470Z,25.73
2018-09-14T07:40:20.912Z,26.00
2018-09-14T07:40:58.811Z,25.37
2018-09-14T07:41:36.764Z,26.60
2018-09-14T07:42:14.772Z,26.07
2018-09-14T07:42:53.062Z,25.80
2018-09-14T07:43:31.726Z,24.80
2018-09-14T07:44:09.806Z,26.33
2018-09-14T07:44:47.834Z,24.57
2018-09-14T07:45:26.430Z,25.70
2018-09-14T07:46:04.334Z,26.63
2018-09-14T07:46:42.278Z,25.20
2018-09-14T07:47:21.377Z,24.87
2018-09-14T07:48:00.866Z,24.47
2018-09-14T07:48:38.867Z,24.00
2018-09-14T07:49:17.001Z,26.73
2018-09-14T07:49:54.906Z,25.97
2018-09-14T07:50:32.825Z,27.77
2018-09-14T07:51:11.018Z,24.87
2018-09-14T07:51:49.216Z,25.00
2018-09-14T07:52:27.356Z,25.30
2018-09-14T07:53:05.383Z,24.47
2018-09-14T07:53:43.206Z,24.87
2018-09-14T07:54:21.165Z,26.03
2018-09-14T07:54:59.136Z,26.23
2018-09-14T07:55:37.233Z,29.80
2018-09-14T07:56:17.591Z,27.67
2018-09-14T07:56:55.585Z,24.73
2018-09-14T07:57:33.409Z,27.60
2018-09-14T07:58:11.661Z,25.75
2018-09-14T07:58:49.643Z,24.47
2018-09-14T07:59:27.604Z,25.88
2018-09-14T08:00:05.968Z,27.97
2018-09-14T08:00:44.447Z,24.20
2018-09-14T08:01:22.295Z,26.50
2018-09-14T08:02:00.330Z,26.40
2018-09-14T08:02:38.218Z,24.90
2018-09-14T08:03:17.044Z,25.68
2018-09-14T08:03:54.925Z,25.50
2018-09-14T08:04:33.205Z,25.00
2018-09-14T08:05:11.465Z,26.93
2018-09-14T08:05:49.271Z,25.67
2018-09-14T08:06:27.274Z,26.30
2018-09-14T08:07:05.144Z,24.77
2018-09-14T08:07:43.065Z,26.50
2018-09-14T08:08:21.800Z,25.63
2018-09-14T08:09:00.029Z,25.87
2018-09-14T08:09:38.205Z,24.90
2018-09-14T08:10:16.726Z,26.10
2018-09-14T08:10:55.468Z,26.70
2018-09-14T08:11:33.307Z,24.93
2018-09-14T08:12:11.302Z,25.57
2018-09-14T08:12:49.171Z,25.00
2018-09-14T08:13:27.899Z,26.27
2018-09-14T08:14:09.556Z,24.47
2018-09-14T08:14:47.952Z,32.53
2018-09-14T08:15:25.950Z,25.40
2018-09-14T08:16:03.697Z,26.07
2018-09-14T08:16:41.667Z,29.10
2018-09-14T08:17:19.498Z,24.87
2018-09-14T08:17:57.903Z,26.17
2018-09-14T08:18:35.824Z,25.87